createdAt,value
2023-05-13T00:01:24.052Z,11.20
2023-05-13T00:03:50.798Z,11.20
2023-05-13T00:06:17.662Z,11.30
2023-05-13T00:08:44.450Z,11.20
2023-05-13T00:11:11.116Z,11.20
2023-05-13T00:13:37.709Z,11.20
2023-05-13T00:16:04.451Z,11.30
2023-05-13T00:18:31.260Z,11.20
2023-05-13T00:20:58.129Z,11.20
2023-05-13T00:23:24.806Z,11.20
2023-05-13T00:25:51.420Z,11.20
2023-05-13T00:28:18.164Z,11.20
2023-05-13T00:30:45.892Z,11.30
2023-05-13T00:33:12.701Z,11.30
2023-05-13T00:35:39.526Z,11.30
2023-05-13T00:38:06.925Z,11.20
2023-05-13T00:40:34.467Z,11.30
2023-05-13T00:43:01.207Z,11.30
2023-05-13T00:45:28.080Z,11.30
2023-05-13T00:47:54.818Z,11.30
2023-05-13T00:50:22.908Z,11.20
2023-05-13T00:52:50.930Z,11.20
2023-05-13T00:55:17.719Z,11.20
2023-05-13T00:57:44.361Z,11.20
2023-05-13T01:00:11.206Z,11.20
2023-05-13T01:02:53.388Z,11.20
2023-05-13T01:05:35.014Z,11.20
2023-05-13T01:08:21.908Z,11.30
2023-05-13T01:10:49.757Z,11.20
2023-05-13T01:13:27.547Z,11.30
2023-05-13T01:15:58.053Z,11.30
2023-05-13T01:18:27.117Z,11.20
2023-05-13T01:20:53.925Z,11.20
2023-05-13T01:23:20.619Z,11.20
2023-05-13T01:25:47.856Z,11.20
2023-05-13T01:28:14.605Z,11.20
2023-05-13T01:30:41.240Z,11.30
2023-05-13T01:33:08.090Z,11.20
2023-05-13T01:35:34.935Z,11.20
2023-05-13T01:38:02.496Z,11.20
2023-05-13T01:40:32.758Z,11.20
2023-05-13T01:43:00.618Z,11.20
2023-05-13T01:45:28.342Z,11.20
2023-05-13T01:47:55.090Z,11.20
2023-05-13T01:50:21.980Z,11.30
2023-05-13T01:52:48.784Z,11.30
2023-05-13T01:55:15.629Z,11.20
2023-05-13T01:57:42.221Z,11.20
2023-05-13T02:00:09.146Z,11.30
2023-05-13T02:02:37.724Z,11.30
2023-05-13T02:05:04.797Z,11.30
2023-05-13T02:07:31.525Z,11.30
2023-05-13T02:09:59.967Z,11.20
2023-05-13T02:12:26.950Z,11.20
2023-05-13T02:14:53.986Z,11.20
2023-05-13T02:17:20.840Z,11.20
2023-05-13T02:19:47.539Z,11.20
2023-05-13T02:22:14.211Z,11.20
2023-05-13T02:24:41.612Z,11.20
2023-05-13T02:27:08.375Z,11.20
2023-05-13T02:29:35.041Z,11.10
2023-05-13T02:32:01.754Z,11.10
2023-05-13T02:34:28.461Z,11.10
2023-05-13T02:36:55.846Z,11.10
2023-05-13T02:39:22.601Z,11.00
2023-05-13T02:41:49.375Z,11.10
2023-05-13T02:44:16.047Z,11.10
2023-05-13T02:46:44.216Z,11.10
2023-05-13T02:49:11.221Z,11.10
2023-05-13T02:51:37.822Z,11.10
2023-05-13T02:54:05.354Z,11.10
2023-05-13T02:56:32.002Z,11.10
2023-05-13T02:58:58.652Z,11.10
2023-05-13T03:01:26.970Z,11.10
2023-05-13T03:03:53.668Z,11.10
2023-05-13T03:06:20.326Z,11.10
2023-05-13T03:08:46.969Z,11.10
2023-05-13T03:11:13.623Z,11.00
2023-05-13T03:13:40.488Z,11.00
2023-05-13T03:16:07.222Z,11.10
2023-05-13T03:18:34.862Z,11.00
2023-05-13T03:21:01.972Z,10.90
2023-05-13T03:23:28.640Z,10.90
2023-05-13T03:25:55.431Z,11.00
2023-05-13T03:28:22.061Z,11.00
2023-05-13T03:30:48.853Z,11.00
2023-05-13T03:33:15.571Z,11.00
2023-05-13T03:35:42.231Z,11.00
2023-05-13T03:38:08.829Z,11.10
2023-05-13T03:40:35.426Z,11.10
2023-05-13T03:43:02.108Z,11.20
2023-05-13T03:45:28.723Z,11.20
2023-05-13T03:47:55.453Z,11.20
2023-05-13T03:50:22.237Z,11.20
2023-05-13T03:52:49.020Z,11.20
2023-05-13T03:55:15.718Z,11.20
2023-05-13T03:57:42.742Z,11.20
2023-05-13T04:00:10.044Z,11.20
2023-05-13T04:02:36.772Z,11.30
2023-05-13T04:05:06.007Z,11.30
2023-05-13T04:07:32.684Z,11.40
2023-05-13T04:09:59.339Z,11.40
2023-05-13T04:12:26.069Z,11.40
2023-05-13T04:14:52.800Z,11.50
2023-05-13T04:17:19.450Z,11.50
2023-05-13T04:19:46.171Z,11.50
2023-05-13T04:22:12.875Z,11.60
2023-05-13T04:24:39.485Z,11.60
2023-05-13T04:27:06.105Z,11.70
2023-05-13T04:29:32.731Z,11.60
2023-05-13T04:31:59.398Z,11.60
2023-05-13T04:34:26.031Z,11.70
2023-05-13T04:36:52.636Z,11.80
2023-05-13T04:39:19.306Z,11.80
2023-05-13T04:41:45.975Z,11.90
2023-05-13T04:44:12.752Z,11.90
2023-05-13T04:46:40.549Z,11.90
2023-05-13T04:49:07.648Z,11.90
2023-05-13T04:51:34.755Z,11.90
2023-05-13T04:54:01.709Z,11.90
2023-05-13T04:56:28.765Z,11.80
2023-05-13T04:58:55.432Z,11.80
2023-05-13T05:01:22.085Z,11.80
2023-05-13T05:03:48.757Z,11.80
2023-05-13T05:06:15.994Z,11.80
2023-05-13T05:08:43.481Z,11.90
2023-05-13T05:11:10.720Z,12.00
2023-05-13T05:13:37.374Z,12.00
2023-05-13T05:16:04.008Z,12.00
2023-05-13T05:18:30.694Z,12.10
2023-05-13T05:20:57.379Z,12.10
2023-05-13T05:23:23.998Z,12.10
2023-05-13T05:26:00.572Z,12.20
2023-05-13T05:28:35.066Z,12.20
2023-05-13T05:31:02.808Z,12.20
2023-05-13T05:33:29.522Z,12.20
2023-05-13T05:35:56.153Z,12.30
2023-05-13T05:38:25.267Z,12.40
2023-05-13T05:40:52.046Z,12.40
2023-05-13T05:43:18.733Z,12.40
2023-05-13T05:45:45.592Z,12.40
2023-05-13T05:48:12.248Z,12.40
2023-05-13T05:50:38.981Z,12.50
2023-05-13T05:53:07.014Z,12.60
2023-05-13T05:55:33.816Z,12.50
2023-05-13T05:58:05.456Z,12.50
2023-05-13T06:00:33.299Z,12.50
2023-05-13T06:03:00.220Z,12.40
2023-05-13T06:05:27.123Z,12.40
2023-05-13T06:07:53.758Z,12.50
2023-05-13T06:10:20.579Z,12.50
2023-05-13T06:12:47.378Z,12.60
2023-05-13T06:15:14.017Z,12.70
2023-05-13T06:17:40.918Z,12.80
2023-05-13T06:20:07.825Z,12.80
2023-05-13T06:22:34.612Z,12.70
2023-05-13T06:25:01.371Z,12.80
2023-05-13T06:27:28.024Z,12.90
2023-05-13T06:29:54.703Z,13.10
2023-05-13T06:32:21.358Z,13.10
2023-05-13T06:34:48.457Z,13.20
2023-05-13T06:37:15.439Z,13.30
2023-05-13T06:39:42.236Z,13.50
2023-05-13T06:42:09.044Z,13.50
2023-05-13T06:44:35.725Z,13.60
2023-05-13T06:47:05.760Z,13.60
2023-05-13T06:49:35.563Z,13.60
2023-05-13T06:52:02.249Z,13.50
2023-05-13T06:54:28.879Z,13.50
2023-05-13T06:56:55.521Z,13.60
2023-05-13T06:59:22.833Z,13.70
2023-05-13T07:01:49.445Z,13.80
2023-05-13T07:04:16.483Z,14.00
2023-05-13T07:06:43.384Z,14.00
2023-05-13T07:09:10.125Z,14.00
2023-05-13T07:11:37.342Z,13.90
2023-05-13T07:14:03.971Z,13.90
2023-05-13T07:16:30.789Z,14.00
2023-05-13T07:18:57.614Z,14.00
2023-05-13T07:21:24.299Z,14.10
2023-05-13T07:23:51.110Z,14.10
2023-05-13T07:26:17.881Z,14.10
2023-05-13T07:28:44.608Z,14.20
2023-05-13T07:31:11.318Z,14.20
2023-05-13T07:33:38.008Z,14.30
2023-05-13T07:36:05.749Z,14.30
2023-05-13T07:38:32.571Z,14.50
2023-05-13T07:40:59.323Z,14.80
2023-05-13T07:43:27.955Z,14.80
2023-05-13T07:45:54.641Z,15.00
2023-05-13T07:48:21.541Z,14.90
2023-05-13T07:50:48.232Z,15.00
2023-05-13T07:53:15.727Z,15.00
2023-05-13T07:55:43.273Z,15.00
2023-05-13T07:58:09.943Z,15.20
2023-05-13T08:00:36.672Z,15.30
2023-05-13T08:03:04.075Z,15.30
2023-05-13T08:05:30.845Z,15.40
2023-05-13T08:07:57.499Z,15.60
2023-05-13T08:10:24.217Z,15.70
2023-05-13T08:12:54.259Z,15.90
2023-05-13T08:15:21.061Z,15.90
2023-05-13T08:17:48.143Z,16.00
2023-05-13T08:20:15.275Z,16.00
2023-05-13T08:22:42.916Z,16.20
2023-05-13T08:25:11.276Z,16.30
2023-05-13T08:27:37.971Z,16.40
2023-05-13T08:30:05.262Z,16.40
2023-05-13T08:32:31.882Z,16.40
2023-05-13T08:34:59.321Z,16.40
2023-05-13T08:37:25.980Z,16.50
2023-05-13T08:39:52.725Z,16.30
2023-05-13T08:42:21.720Z,16.20
2023-05-13T08:44:48.871Z,16.30
2023-05-13T08:47:36.954Z,16.40
2023-05-13T08:50:03.957Z,16.50
2023-05-13T08:52:31.525Z,16.70
2023-05-13T08:54:59.313Z,16.80
2023-05-13T08:57:26.243Z,17.00
2023-05-13T08:59:52.952Z,16.80
2023-05-13T09:02:19.688Z,16.80
2023-05-13T09:04:46.814Z,16.90
2023-05-13T09:07:13.836Z,16.90
2023-05-13T09:09:40.814Z,16.80
2023-05-13T09:12:07.718Z,16.90
2023-05-13T09:14:34.481Z,17.00
2023-05-13T09:17:02.144Z,17.00
2023-05-13T09:19:29.077Z,16.80
2023-05-13T09:21:57.124Z,16.70
2023-05-13T09:24:23.908Z,16.70
2023-05-13T09:26:51.314Z,16.70
2023-05-13T09:29:19.311Z,16.80
2023-05-13T09:31:48.604Z,16.70
2023-05-13T09:34:15.726Z,16.70
2023-05-13T09:36:43.012Z,16.90
2023-05-13T09:39:11.486Z,16.90
2023-05-13T09:41:38.125Z,16.80
2023-05-13T09:44:05.161Z,16.90
2023-05-13T09:46:34.824Z,17.10
2023-05-13T09:49:01.711Z,17.00
2023-05-13T09:51:31.879Z,16.90
2023-05-13T09:54:08.083Z,16.60
2023-05-13T09:56:35.829Z,16.50
2023-05-13T09:59:03.386Z,16.30
2023-05-13T10:01:30.342Z,16.30
2023-05-13T10:03:58.955Z,16.40
2023-05-13T10:06:30.360Z,16.40
2023-05-13T10:08:58.365Z,16.70
2023-05-13T10:11:25.994Z,16.70
2023-05-13T10:13:58.771Z,16.40
2023-05-13T10:16:25.633Z,16.40
2023-05-13T10:18:52.648Z,16.40
2023-05-13T10:21:19.538Z,16.50
2023-05-13T10:23:47.358Z,16.50
2023-05-13T10:26:14.511Z,16.40
2023-05-13T10:28:42.865Z,16.00
2023-05-13T10:31:09.514Z,15.90
2023-05-13T10:33:36.152Z,16.10
2023-05-13T10:36:06.027Z,16.00
2023-05-13T10:38:55.945Z,15.90
2023-05-13T10:41:41.613Z,16.00
2023-05-13T10:44:09.829Z,16.30
2023-05-13T10:46:39.652Z,16.50
2023-05-13T10:49:13.628Z,16.10
2023-05-13T10:51:44.519Z,15.90
2023-05-13T10:54:18.332Z,16.00
2023-05-13T10:56:45.082Z,16.20
2023-05-13T10:59:12.442Z,16.40
2023-05-13T11:01:43.583Z,16.50
2023-05-13T11:04:18.033Z,16.80
2023-05-13T11:06:46.373Z,17.40
2023-05-13T11:09:13.204Z,17.70
2023-05-13T11:11:39.931Z,17.80
2023-05-13T11:14:08.981Z,18.00
2023-05-13T11:16:36.478Z,18.00
2023-05-13T11:19:04.093Z,18.10
2023-05-13T11:21:36.333Z,17.80
2023-05-13T11:24:04.174Z,17.60
2023-05-13T11:26:43.899Z,17.50
2023-05-13T11:29:10.568Z,17.80
2023-05-13T11:31:48.131Z,18.20
2023-05-13T11:34:18.007Z,18.20
2023-05-13T11:36:51.647Z,18.30
2023-05-13T11:39:22.519Z,18.10
2023-05-13T11:41:49.926Z,17.90
2023-05-13T11:44:17.695Z,17.80
2023-05-13T11:46:50.434Z,18.10
2023-05-13T11:49:36.922Z,18.10
2023-05-13T11:52:04.250Z,18.20
2023-05-13T11:54:31.146Z,18.60
2023-05-13T11:56:57.790Z,18.40
2023-05-13T11:59:24.708Z,18.20
2023-05-13T12:02:01.161Z,18.10
2023-05-13T12:04:29.327Z,18.30
2023-05-13T12:06:56.404Z,18.50
2023-05-13T12:09:23.704Z,18.80
2023-05-13T12:11:53.842Z,19.00
2023-05-13T12:14:20.908Z,19.20
2023-05-13T12:16:47.643Z,19.10
2023-05-13T12:19:14.392Z,19.00
2023-05-13T12:21:41.340Z,18.70
2023-05-13T12:24:20.957Z,18.60
2023-05-13T12:26:48.037Z,18.30
2023-05-13T12:29:14.765Z,18.20
2023-05-13T12:32:03.568Z,18.50
2023-05-13T12:34:31.066Z,18.70
2023-05-13T12:37:08.815Z,18.90
2023-05-13T12:39:35.479Z,19.00
2023-05-13T12:42:02.113Z,19.00
2023-05-13T12:44:29.995Z,18.80
2023-05-13T12:46:58.009Z,18.80
2023-05-13T12:49:25.113Z,18.60
2023-05-13T12:51:52.026Z,18.40
2023-05-13T12:54:18.890Z,18.20
2023-05-13T12:56:45.536Z,18.10
2023-05-13T12:59:13.417Z,18.10
2023-05-13T13:01:40.513Z,18.00
2023-05-13T13:04:07.335Z,17.80
2023-05-13T13:06:34.109Z,17.80
2023-05-13T13:09:00.746Z,18.10
2023-05-13T13:11:27.813Z,18.40
2023-05-13T13:13:54.468Z,18.50
2023-05-13T13:16:21.898Z,18.70
2023-05-13T13:18:50.588Z,19.00
2023-05-13T13:21:18.475Z,19.00
2023-05-13T13:23:45.210Z,18.90
2023-05-13T13:26:12.217Z,18.90
2023-05-13T13:28:38.843Z,19.00
2023-05-13T13:31:05.686Z,19.10
2023-05-13T13:33:32.284Z,19.10
2023-05-13T13:35:58.897Z,19.30
2023-05-13T13:38:25.578Z,19.60
2023-05-13T13:40:52.212Z,19.90
2023-05-13T13:43:19.561Z,19.50
2023-05-13T13:45:46.276Z,19.50
2023-05-13T13:48:13.229Z,19.50
2023-05-13T13:50:40.203Z,19.40
2023-05-13T13:53:07.040Z,19.10
2023-05-13T13:55:33.809Z,18.90
2023-05-13T13:58:00.541Z,19.00
2023-05-13T14:00:27.197Z,19.50
2023-05-13T14:02:54.024Z,19.80
2023-05-13T14:05:20.945Z,19.60
2023-05-13T14:07:49.431Z,19.80
2023-05-13T14:10:16.153Z,19.70
2023-05-13T14:12:42.782Z,19.60
2023-05-13T14:15:09.587Z,19.50
2023-05-13T14:17:36.319Z,19.40
2023-05-13T14:20:03.640Z,19.30
2023-05-13T14:22:30.297Z,19.10
2023-05-13T14:24:57.036Z,19.10
2023-05-13T14:27:24.647Z,19.10
2023-05-13T14:29:51.493Z,19.00
2023-05-13T14:32:18.307Z,18.80
2023-05-13T14:34:45.068Z,18.50
2023-05-13T14:37:11.884Z,18.40
2023-05-13T14:39:38.573Z,18.30
2023-05-13T14:42:05.705Z,18.40
2023-05-13T14:44:32.786Z,18.50
2023-05-13T14:46:59.592Z,18.60
2023-05-13T14:49:26.378Z,18.60
2023-05-13T14:51:53.006Z,18.50
2023-05-13T14:54:19.705Z,18.30
2023-05-13T14:56:46.450Z,18.20
2023-05-13T14:59:13.233Z,18.10
2023-05-13T15:01:39.908Z,18.00
2023-05-13T15:04:06.605Z,17.90
2023-05-13T15:06:33.728Z,17.80
2023-05-13T15:09:00.386Z,17.80
2023-05-13T15:11:28.005Z,17.80
2023-05-13T15:13:54.677Z,17.70
2023-05-13T15:16:21.440Z,17.60
2023-05-13T15:18:49.732Z,17.40
2023-05-13T15:21:16.554Z,17.10
2023-05-13T15:23:43.200Z,17.00
2023-05-13T15:26:09.853Z,16.90
2023-05-13T15:28:36.477Z,16.70
2023-05-13T15:31:03.216Z,16.60
2023-05-13T15:33:29.860Z,16.60
2023-05-13T15:35:56.660Z,16.10
2023-05-13T15:38:23.391Z,15.80
2023-05-13T15:40:50.449Z,15.80
2023-05-13T15:43:17.917Z,15.80
2023-05-13T15:45:44.667Z,15.70
2023-05-13T15:48:11.402Z,15.50
2023-05-13T15:50:38.058Z,15.50
2023-05-13T15:53:04.731Z,15.50
2023-05-13T15:55:32.077Z,15.50
2023-05-13T15:57:58.752Z,15.50
2023-05-13T16:00:25.645Z,15.50
2023-05-13T16:02:52.219Z,15.60
2023-05-13T16:05:19.336Z,15.70
2023-05-13T16:07:46.046Z,15.70
2023-05-13T16:10:12.756Z,15.70
2023-05-13T16:12:39.605Z,15.70
2023-05-13T16:15:06.833Z,15.70
2023-05-13T16:17:33.516Z,15.70
2023-05-13T16:20:00.328Z,15.70
2023-05-13T16:22:32.719Z,15.60
2023-05-13T16:25:00.858Z,15.60
2023-05-13T16:27:28.303Z,15.60
2023-05-13T16:29:56.229Z,15.60
2023-05-13T16:32:23.094Z,15.60
2023-05-13T16:34:49.800Z,15.50
2023-05-13T16:37:16.715Z,15.50
2023-05-13T16:39:43.474Z,15.50
2023-05-13T16:42:10.135Z,15.50
2023-05-13T16:44:36.814Z,15.50
2023-05-13T16:47:03.871Z,15.50
2023-05-13T16:49:30.534Z,15.40
2023-05-13T16:51:57.186Z,15.40
2023-05-13T16:54:23.830Z,15.30
2023-05-13T16:56:50.831Z,15.30
2023-05-13T16:59:24.251Z,15.30
2023-05-13T17:01:51.883Z,15.30
2023-05-13T17:04:19.406Z,15.20
2023-05-13T17:06:46.086Z,15.20
2023-05-13T17:09:12.759Z,15.20
2023-05-13T17:11:39.438Z,15.20
2023-05-13T17:14:06.105Z,15.20
2023-05-13T17:16:32.978Z,15.20
2023-05-13T17:18:59.754Z,15.10
2023-05-13T17:21:26.501Z,15.00
2023-05-13T17:23:53.453Z,15.00
2023-05-13T17:26:21.954Z,15.00
2023-05-13T17:28:49.603Z,14.90
2023-05-13T17:31:16.669Z,14.90
2023-05-13T17:33:43.629Z,14.90
2023-05-13T17:36:10.989Z,14.90
2023-05-13T17:38:38.110Z,14.90
2023-05-13T17:41:04.881Z,14.90
2023-05-13T17:43:31.558Z,14.90
2023-05-13T17:45:58.289Z,14.90
2023-05-13T17:48:25.707Z,14.90
2023-05-13T17:50:52.819Z,14.80
2023-05-13T17:53:19.926Z,14.80
2023-05-13T17:55:48.490Z,14.80
2023-05-13T17:58:15.594Z,14.80
2023-05-13T18:00:42.338Z,14.80
2023-05-13T18:03:09.085Z,14.80
2023-05-13T18:05:35.878Z,14.80
2023-05-13T18:08:02.547Z,14.80
2023-05-13T18:10:29.170Z,14.80
2023-05-13T18:12:55.825Z,14.80
2023-05-13T18:15:22.479Z,14.80
2023-05-13T18:17:49.566Z,14.70
2023-05-13T18:20:16.590Z,14.70
2023-05-13T18:22:43.200Z,14.70
2023-05-13T18:25:10.055Z,14.70
2023-05-13T18:27:36.808Z,14.70
2023-05-13T18:30:03.556Z,14.60
2023-05-13T18:32:30.425Z,14.60
2023-05-13T18:34:57.099Z,14.60
2023-05-13T18:37:23.730Z,14.50
2023-05-13T18:39:50.406Z,14.50
2023-05-13T18:42:17.039Z,14.40
2023-05-13T18:44:43.744Z,14.30
2023-05-13T18:47:11.191Z,14.20
2023-05-13T18:49:37.817Z,14.20
2023-05-13T18:52:04.575Z,14.20
2023-05-13T18:54:31.251Z,14.20
2023-05-13T18:56:57.874Z,14.20
2023-05-13T18:59:24.671Z,14.20
2023-05-13T19:01:51.442Z,14.20
2023-05-13T19:04:18.334Z,14.20
2023-05-13T19:06:45.030Z,14.10
2023-05-13T19:09:11.996Z,14.00
2023-05-13T19:11:38.644Z,14.00
2023-05-13T19:14:05.290Z,14.00
2023-05-13T19:16:32.016Z,13.90
2023-05-13T19:18:58.820Z,13.90
2023-05-13T19:21:25.622Z,13.90
2023-05-13T19:23:52.256Z,13.90
2023-05-13T19:26:18.942Z,13.90
2023-05-13T19:28:46.196Z,13.80
2023-05-13T19:31:12.876Z,13.80
2023-05-13T19:33:39.774Z,13.70
2023-05-13T19:36:06.930Z,13.70
2023-05-13T19:38:33.993Z,13.70
2023-05-13T19:41:01.604Z,13.70
2023-05-13T19:43:28.352Z,13.60
2023-05-13T19:45:56.453Z,13.60
2023-05-13T19:48:23.191Z,13.60
2023-05-13T19:50:53.390Z,13.50
2023-05-13T19:53:21.627Z,13.60
2023-05-13T19:55:48.308Z,13.50
2023-05-13T19:58:15.387Z,13.50
2023-05-13T20:00:43.963Z,13.50
2023-05-13T20:03:11.158Z,13.50
2023-05-13T20:05:39.666Z,13.40
2023-05-13T20:08:06.444Z,13.40
2023-05-13T20:10:35.260Z,13.30
2023-05-13T20:13:04.041Z,13.30
2023-05-13T20:15:31.120Z,13.30
2023-05-13T20:17:57.936Z,13.20
2023-05-13T20:20:24.871Z,13.20
2023-05-13T20:22:51.684Z,13.10
2023-05-13T20:25:18.384Z,13.10
2023-05-13T20:27:45.051Z,13.00
2023-05-13T20:30:12.048Z,13.00
2023-05-13T20:32:38.766Z,12.90
2023-05-13T20:35:07.550Z,12.80
2023-05-13T20:37:34.403Z,12.80
2023-05-13T20:40:01.105Z,12.80
2023-05-13T20:42:27.810Z,12.70
2023-05-13T20:44:54.425Z,12.60
2023-05-13T20:47:21.501Z,12.60
2023-05-13T20:49:48.137Z,12.50
2023-05-13T20:52:14.856Z,12.50
2023-05-13T20:54:41.530Z,12.50
2023-05-13T20:57:08.166Z,12.50
2023-05-13T20:59:34.933Z,12.40
2023-05-13T21:02:01.671Z,12.40
2023-05-13T21:04:28.404Z,12.40
2023-05-13T21:06:55.273Z,12.40
2023-05-13T21:09:21.941Z,12.50
2023-05-13T21:11:48.588Z,12.50
2023-05-13T21:14:15.273Z,12.50
2023-05-13T21:16:42.499Z,12.60
2023-05-13T21:19:17.698Z,12.60
2023-05-13T21:21:44.295Z,12.60
2023-05-13T21:24:10.942Z,12.60
2023-05-13T21:26:37.559Z,12.50
2023-05-13T21:29:04.171Z,12.50
2023-05-13T21:31:30.834Z,12.50
2023-05-13T21:33:57.490Z,12.50
2023-05-13T21:36:24.095Z,12.40
2023-05-13T21:38:51.707Z,12.30
2023-05-13T21:41:22.701Z,12.30
2023-05-13T21:43:49.327Z,12.20
2023-05-13T21:46:15.958Z,12.10
2023-05-13T21:48:42.604Z,12.10
2023-05-13T21:51:09.262Z,11.90
2023-05-13T21:53:35.965Z,11.90
2023-05-13T21:56:03.043Z,11.80
2023-05-13T21:58:29.667Z,11.80
2023-05-13T22:00:56.605Z,11.70
2023-05-13T22:03:23.419Z,11.70
2023-05-13T22:05:50.042Z,11.70
2023-05-13T22:08:16.735Z,11.70
2023-05-13T22:10:43.439Z,11.70
2023-05-13T22:13:10.110Z,11.70
2023-05-13T22:15:36.760Z,11.70
2023-05-13T22:18:03.536Z,11.70
2023-05-13T22:20:30.368Z,11.70
2023-05-13T22:22:57.011Z,11.70
2023-05-13T22:25:23.644Z,11.70
2023-05-13T22:27:50.721Z,11.80
2023-05-13T22:30:17.499Z,11.80
2023-05-13T22:32:44.128Z,11.80
2023-05-13T22:35:11.140Z,11.80
2023-05-13T22:37:37.744Z,11.70
2023-05-13T22:40:04.572Z,11.70
2023-05-13T22:42:31.307Z,11.70
2023-05-13T22:44:57.985Z,11.70
2023-05-13T22:47:24.678Z,11.80
2023-05-13T22:49:51.348Z,11.80
2023-05-13T22:52:17.946Z,11.80
2023-05-13T22:54:44.596Z,11.80
2023-05-13T22:57:11.249Z,11.80
2023-05-13T22:59:38.050Z,11.80
2023-05-13T23:02:04.897Z,11.90
2023-05-13T23:04:31.915Z,11.80
2023-05-13T23:06:58.614Z,11.80
2023-05-13T23:09:25.452Z,11.80
2023-05-13T23:11:52.203Z,11.70
2023-05-13T23:14:18.876Z,11.70
2023-05-13T23:16:45.531Z,11.70
2023-05-13T23:19:12.247Z,11.60
2023-05-13T23:21:38.902Z,11.60
2023-05-13T23:24:05.575Z,11.60
2023-05-13T23:26:32.316Z,11.60
2023-05-13T23:28:58.928Z,11.50
2023-05-13T23:31:25.609Z,11.50
2023-05-13T23:33:52.319Z,11.40
2023-05-13T23:36:18.986Z,11.40
2023-05-13T23:38:46.126Z,11.30
2023-05-13T23:41:12.779Z,11.30
2023-05-13T23:43:39.400Z,11.30
2023-05-13T23:46:06.071Z,11.30
2023-05-13T23:48:32.840Z,11.40
2023-05-13T23:50:59.502Z,11.30
2023-05-13T23:53:26.158Z,11.30
2023-05-13T23:55:52.839Z,11.30
2023-05-13T23:58:19.475Z,11.30
